Time;durP1;ratioP1;P1;durP2;ratioP2;P2;SDS_P1;SDS_P2;PMS_P1;PMS_P2;Temp;Humidity;BMP_temperature;BMP_pressure;BME280_temperature;BME280_humidity;BME280_pressure;Samples;Min_cycle;Max_cycle;Signal;HPM_P1;HPM_P2
2023/05/02 00:01:04;;;;;;;11.75;6.75;;;;;;;11.13;53.14;101042.19;5052894;28;20386;-57
2023/05/02 00:03:33;;;;;;;10.93;7.30;;;;;;;11.07;53.29;101042.44;5018269;28;20025;-57
2023/05/02 00:05:59;;;;;;;12.10;7.70;;;;;;;11.03;54.29;101046.13;5035049;28;20108;-57
2023/05/02 00:08:24;;;;;;;13.20;6.88;;;;;;;11.10;52.44;101047.63;5048195;28;20159;-58
2023/05/02 00:10:50;;;;;;;11.15;6.50;;;;;;;11.06;52.35;101040.72;5041787;28;20029;-55
2023/05/02 00:13:15;;;;;;;11.57;7.57;;;;;;;11.13;51.35;101042.19;5048238;28;20029;-55
2023/05/02 00:15:40;;;;;;;8.85;6.38;;;;;;;11.23;50.70;101041.78;5045590;28;20523;-55
2023/05/02 00:18:06;;;;;;;17.30;7.95;;;;;;;11.11;50.71;101044.03;5055294;28;20067;-58
2023/05/02 00:20:31;;;;;;;29.80;7.45;;;;;;;11.19;50.23;101041.06;5050916;28;20033;-57
2023/05/02 00:22:57;;;;;;;10.55;6.50;;;;;;;11.13;50.55;101031.59;5041481;28;20582;-58
2023/05/02 00:25:22;;;;;;;12.35;7.53;;;;;;;11.17;50.69;101034.97;5043860;28;20430;-57
2023/05/02 00:27:49;;;;;;;11.52;6.55;;;;;;;11.22;49.97;101034.78;5058115;28;20349;-55
2023/05/02 00:30:16;;;;;;;10.55;6.93;;;;;;;11.18;50.08;101034.91;5054697;28;20063;-57
2023/05/02 00:32:42;;;;;;;11.32;7.00;;;;;;;11.27;50.22;101038.06;5034389;28;20469;-57
2023/05/02 00:35:07;;;;;;;13.25;6.88;;;;;;;11.20;50.48;101038.34;5036627;28;20041;-57
2023/05/02 00:37:33;;;;;;;13.07;7.38;;;;;;;10.99;51.61;101037.47;5043295;28;20033;-57
2023/05/02 00:39:58;;;;;;;15.05;6.68;;;;;;;10.90;52.73;101040.50;5039707;28;20037;-57
2023/05/02 00:42:24;;;;;;;12.43;6.97;;;;;;;10.92;51.80;101053.66;5033834;28;20059;-58
2023/05/02 00:44:49;;;;;;;14.70;6.30;;;;;;;10.81;52.38;101039.13;5040410;28;20048;-57
2023/05/02 00:47:15;;;;;;;15.65;7.53;;;;;;;10.79;51.97;101033.03;5044271;28;20025;-57
2023/05/02 00:49:41;;;;;;;12.25;7.30;;;;;;;10.92;51.71;101035.16;5048503;28;20056;-57
2023/05/02 00:52:07;;;;;;;12.88;7.07;;;;;;;10.71;52.46;101032.50;5033360;28;20366;-57
2023/05/02 00:54:33;;;;;;;14.68;7.30;;;;;;;10.69;52.22;101034.38;5037665;28;20599;-57
2023/05/02 00:56:58;;;;;;;10.75;7.13;;;;;;;10.60;52.86;101042.66;5050456;28;20035;-56
2023/05/02 00:59:24;;;;;;;10.45;6.93;;;;;;;10.55;53.81;101042.00;5032767;28;20943;-57
2023/05/02 01:02:38;;;;;;;9.57;6.05;;;;;;;10.58;53.61;101039.22;5045877;28;20052;-57
2023/05/02 01:05:24;;;;;;;12.13;7.60;;;;;;;10.51;54.49;101043.03;5022562;28;20517;-58
2023/05/02 01:08:07;;;;;;;13.65;7.25;;;;;;;10.38;54.46;101054.13;5020949;28;20040;-57
2023/05/02 01:10:50;;;;;;;13.77;7.22;;;;;;;10.33;54.78;101045.50;5041676;28;20029;-58
2023/05/02 01:13:31;;;;;;;11.55;6.78;;;;;;;10.23;54.96;101047.63;5047288;28;20354;-55
2023/05/02 01:15:58;;;;;;;9.60;7.18;;;;;;;10.23;55.30;101049.38;5050051;28;20021;-57
2023/05/02 01:18:25;;;;;;;13.45;7.00;;;;;;;10.34;54.43;101046.38;5051246;28;20033;-57
2023/05/02 01:21:00;;;;;;;9.15;6.90;;;;;;;10.42;54.40;101039.00;5049438;28;20025;-57
2023/05/02 01:23:56;;;;;;;11.32;7.07;;;;;;;10.51;54.13;101053.59;5029607;28;20095;-57
2023/05/02 01:26:31;;;;;;;12.40;6.50;;;;;;;10.59;53.53;101054.16;5016971;28;20048;-57
2023/05/02 01:29:05;;;;;;;10.32;6.25;;;;;;;10.53;53.58;101057.06;5029636;28;20033;-57
2023/05/02 01:31:34;;;;;;;8.98;6.30;;;;;;;10.33;54.87;101061.38;5016616;28;20065;-57
2023/05/02 01:34:00;;;;;;;9.10;6.30;;;;;;;10.34;54.00;101065.72;5036039;28;20055;-57
2023/05/02 01:36:29;;;;;;;12.98;6.78;;;;;;;10.40;54.23;101060.19;5035286;28;20025;-57
2023/05/02 01:38:55;;;;;;;14.02;7.13;;;;;;;10.34;54.94;101062.22;5069275;28;20043;-57
2023/05/02 01:41:21;;;;;;;11.32;6.40;;;;;;;10.18;55.46;101061.91;5053352;28;20025;-57
2023/05/02 01:43:47;;;;;;;12.32;6.45;;;;;;;10.20;55.97;101073.28;5052767;28;20025;-57
2023/05/02 01:46:13;;;;;;;11.13;6.45;;;;;;;10.20;55.88;101075.91;5033595;28;20343;-57
2023/05/02 01:48:41;;;;;;;8.88;5.93;;;;;;;10.21;56.07;101075.84;5052206;28;20129;-57
2023/05/02 01:51:07;;;;;;;12.68;6.00;;;;;;;10.09;57.02;101077.19;5052324;28;20055;-57
2023/05/02 01:53:33;;;;;;;11.18;6.53;;;;;;;10.00;56.59;101085.47;5050047;28;20531;-58
2023/05/02 01:55:59;;;;;;;8.10;5.47;;;;;;;9.84;57.83;101084.31;5015683;28;20033;-57
2023/05/02 01:58:26;;;;;;;12.20;6.45;;;;;;;9.78;58.60;101087.22;5032544;28;20095;-57
2023/05/02 02:00:52;;;;;;;8.98;6.07;;;;;;;9.73;58.06;101085.59;5046782;28;20044;-57
2023/05/02 02:03:18;;;;;;;10.18;6.43;;;;;;;9.82;58.79;101099.38;5033689;28;20480;-57
2023/05/02 02:05:46;;;;;;;11.02;6.53;;;;;;;9.67;59.86;101091.09;5045508;28;20027;-57
2023/05/02 02:08:11;;;;;;;18.08;6.80;;;;;;;9.54;59.60;101092.44;5039573;28;20112;-57
2023/05/02 02:10:43;;;;;;;9.40;6.32;;;;;;;9.50;60.23;101093.50;5045969;28;20129;-57
2023/05/02 02:13:45;;;;;;;13.25;6.25;;;;;;;9.45;59.96;101095.41;5054819;28;20028;-57
2023/05/02 02:16:11;;;;;;;12.85;7.32;;;;;;;9.41;61.15;101096.44;5016121;28;20129;-58
2023/05/02 02:18:38;;;;;;;9.55;6.28;;;;;;;9.33;61.93;101100.22;5051581;28;20025;-57
2023/05/02 02:21:07;;;;;;;15.35;6.57;;;;;;;9.28;61.36;101102.13;5050750;28;20037;-58
2023/05/02 02:23:33;;;;;;;13.13;6.32;;;;;;;9.22;62.10;101112.03;5060820;28;20420;-58
2023/05/02 02:26:00;;;;;;;12.05;6.30;;;;;;;9.22;63.07;101112.94;5044204;28;20060;-56
2023/05/02 02:28:25;;;;;;;9.07;5.60;;;;;;;9.44;63.06;101113.03;5036056;28;20065;-55
2023/05/02 02:30:51;;;;;;;9.65;5.72;;;;;;;9.53;63.31;101118.00;5051665;28;20056;-55
2023/05/02 02:33:17;;;;;;;10.13;5.45;;;;;;;9.50;63.74;101117.25;5042648;28;20179;-58
2023/05/02 02:35:51;;;;;;;8.77;5.88;;;;;;;9.49;63.55;101126.06;5024457;28;20033;-56
2023/05/02 02:38:27;;;;;;;12.60;5.20;;;;;;;9.73;63.29;101126.97;5063683;28;20481;-58
2023/05/02 02:41:10;;;;;;;20.55;5.03;;;;;;;9.66;63.28;101133.38;5031884;28;20037;-56
2023/05/02 02:43:54;;;;;;;8.27;4.63;;;;;;;9.69;63.03;101136.78;5048884;28;20140;-56
2023/05/02 02:46:22;;;;;;;7.70;5.10;;;;;;;9.72;63.54;101144.56;5035710;28;20025;-56
2023/05/02 02:48:57;;;;;;;11.45;5.15;;;;;;;9.92;62.97;101150.91;5046645;28;20060;-58
2023/05/02 02:51:36;;;;;;;7.72;4.88;;;;;;;9.99;63.35;101162.09;5048151;28;20029;-56
2023/05/02 02:54:11;;;;;;;7.65;4.40;;;;;;;9.95;62.84;101166.66;5036359;28;20053;-56
2023/05/02 02:56:41;;;;;;;10.82;4.72;;;;;;;9.89;63.63;101172.19;5035780;28;20572;-58
2023/05/02 02:59:19;;;;;;;11.07;4.80;;;;;;;9.90;63.49;101176.53;5035380;28;20029;-58
2023/05/02 03:01:48;;;;;;;10.95;4.75;;;;;;;9.85;63.96;101184.59;5058585;28;20436;-58
2023/05/02 03:04:15;;;;;;;8.40;4.45;;;;;;;9.80;63.81;101190.97;5053642;28;20075;-58
2023/05/02 03:06:41;;;;;;;6.82;4.28;;;;;;;9.71;64.42;101185.09;5048847;28;20024;-57
2023/05/02 03:09:15;;;;;;;7.90;3.92;;;;;;;9.70;64.15;101186.00;5043752;28;20032;-58
2023/05/02 03:11:40;;;;;;;9.82;5.03;;;;;;;9.63;65.11;101189.78;5049478;28;20084;-58
2023/05/02 03:14:06;;;;;;;11.45;5.40;;;;;;;9.59;65.30;101189.94;5061652;28;20033;-56
2023/05/02 03:16:34;;;;;;;5.65;4.20;;;;;;;9.58;64.73;101183.81;5044081;28;20029;-56
2023/05/02 03:19:00;;;;;;;5.45;4.07;;;;;;;9.58;65.10;101197.00;5036857;28;20121;-58
2023/05/02 03:21:25;;;;;;;7.95;4.07;;;;;;;9.58;64.77;101193.47;5046107;28;20116;-58
2023/05/02 03:23:50;;;;;;;8.60;4.28;;;;;;;9.59;63.85;101193.44;5056215;28;20041;-58
2023/05/02 03:26:16;;;;;;;9.10;4.20;;;;;;;9.55;64.35;101189.19;5051517;28;20025;-57
2023/05/02 03:28:45;;;;;;;10.68;4.30;;;;;;;9.63;63.72;101205.63;5053850;28;20025;-57
2023/05/02 03:31:10;;;;;;;8.55;4.82;;;;;;;9.62;63.98;101206.53;5053389;28;20029;-57
2023/05/02 03:33:36;;;;;;;8.27;3.90;;;;;;;9.73;63.72;101214.09;5053490;28;20385;-58
2023/05/02 03:36:01;;;;;;;8.48;5.13;;;;;;;9.68;64.28;101210.75;5051761;28;20033;-58
2023/05/02 03:38:28;;;;;;;8.25;3.80;;;;;;;9.64;64.21;101217.88;5049553;28;20115;-58
2023/05/02 03:40:56;;;;;;;8.70;4.03;;;;;;;9.64;64.40;101220.53;5048220;28;20032;-57
2023/05/02 03:43:21;;;;;;;7.47;4.13;;;;;;;9.66;64.67;101224.00;5051741;28;20044;-58
2023/05/02 03:45:47;;;;;;;9.23;4.43;;;;;;;9.69;64.67;101234.47;5041111;28;20037;-58
2023/05/02 03:48:12;;;;;;;12.25;5.25;;;;;;;9.67;65.17;101241.53;5053481;28;20190;-57
2023/05/02 03:50:37;;;;;;;7.78;4.35;;;;;;;9.66;65.43;101234.56;5035090;28;20033;-57
2023/05/02 03:53:03;;;;;;;8.27;4.25;;;;;;;9.70;65.09;101237.94;5049795;28;20380;-57
2023/05/02 03:55:28;;;;;;;6.20;4.00;;;;;;;9.73;64.84;101233.41;5053918;28;20029;-58
2023/05/02 03:57:53;;;;;;;9.15;4.40;;;;;;;9.76;64.20;101235.09;5042411;28;20033;-58
2023/05/02 04:00:19;;;;;;;12.35;3.42;;;;;;;9.77;64.26;101247.38;5054828;28;20032;-58
2023/05/02 04:02:44;;;;;;;7.90;3.60;;;;;;;9.76;64.09;101242.13;5050926;28;20112;-58
2023/05/02 04:05:10;;;;;;;18.02;4.85;;;;;;;9.77;64.11;101238.59;5036668;28;20108;-57
2023/05/02 04:07:35;;;;;;;9.65;4.13;;;;;;;9.76;63.82;101247.41;5054136;28;20068;-57
2023/05/02 04:10:00;;;;;;;8.65;3.30;;;;;;;9.86;63.88;101248.84;5055167;28;20060;-58
2023/05/02 04:12:26;;;;;;;7.95;3.63;;;;;;;9.88;64.11;101249.66;5037579;28;20210;-58
2023/05/02 04:14:51;;;;;;;10.13;3.97;;;;;;;9.87;63.47;101253.19;5048191;28;20037;-58
2023/05/02 04:17:17;;;;;;;11.40;3.90;;;;;;;9.86;63.73;101251.50;5050350;28;20047;-57
2023/05/02 04:19:42;;;;;;;9.15;3.63;;;;;;;9.89;63.47;101267.22;5055165;28;20033;-58
2023/05/02 04:22:07;;;;;;;17.10;4.10;;;;;;;9.96;62.35;101268.72;5053591;28;20393;-58
2023/05/02 04:24:33;;;;;;;8.23;3.13;;;;;;;9.87;62.79;101272.56;5037561;28;20044;-58
2023/05/02 04:26:58;;;;;;;11.05;3.22;;;;;;;9.90;62.71;101274.22;5039734;28;20029;-58
2023/05/02 04:29:23;;;;;;;6.72;3.15;;;;;;;9.93;63.08;101268.84;5040634;28;20029;-58
2023/05/02 04:31:50;;;;;;;10.32;3.45;;;;;;;9.99;62.63;101275.66;5037317;28;20021;-57
2023/05/02 04:34:15;;;;;;;6.95;3.53;;;;;;;10.02;62.03;101278.19;5063408;28;20047;-58
2023/05/02 04:36:41;;;;;;;6.97;3.30;;;;;;;9.96;61.78;101284.56;5037200;28;20025;-57
2023/05/02 04:39:06;;;;;;;5.00;3.55;;;;;;;9.99;62.37;101287.13;5054064;28;20029;-58
2023/05/02 04:41:32;;;;;;;6.65;3.15;;;;;;;10.05;62.23;101286.91;5040190;28;20365;-57
2023/05/02 04:43:58;;;;;;;10.50;3.50;;;;;;;10.07;62.25;101293.00;5056591;28;20070;-57
2023/05/02 04:46:23;;;;;;;6.68;3.85;;;;;;;10.06;61.71;101301.81;5042438;28;20049;-58
2023/05/02 04:48:49;;;;;;;8.38;3.53;;;;;;;10.10;61.83;101302.56;5034553;28;20035;-58
2023/05/02 04:51:14;;;;;;;8.75;3.65;;;;;;;10.08;61.79;101294.69;5048926;28;20097;-57
2023/05/02 04:53:40;;;;;;;8.05;4.80;;;;;;;10.05;62.22;101302.75;5047832;28;20133;-57
2023/05/02 04:56:06;;;;;;;6.32;3.17;;;;;;;10.15;61.54;101307.69;5034132;28;20053;-57
2023/05/02 04:58:31;;;;;;;7.45;3.90;;;;;;;10.07;62.11;101319.41;5036829;28;20408;-58
2023/05/02 05:00:56;;;;;;;8.93;4.18;;;;;;;10.17;62.01;101329.63;5049820;28;20393;-58
2023/05/02 05:03:22;;;;;;;12.20;4.10;;;;;;;10.14;61.99;101327.97;5038344;28;20025;-58
2023/05/02 05:05:47;;;;;;;11.93;3.88;;;;;;;10.13;62.48;101328.03;5034349;28;20476;-57
2023/05/02 05:08:12;;;;;;;7.75;4.15;;;;;;;10.08;62.07;101331.69;5042523;28;20033;-58
2023/05/02 05:10:39;;;;;;;6.15;3.75;;;;;;;10.17;62.42;101337.56;5035607;28;20045;-57
2023/05/02 05:13:05;;;;;;;8.75;3.67;;;;;;;10.16;62.48;101338.50;5041283;28;20715;-58
2023/05/02 05:15:30;;;;;;;9.43;3.95;;;;;;;10.16;62.16;101343.78;5046763;28;20037;-57
2023/05/02 05:17:56;;;;;;;8.32;3.65;;;;;;;10.19;62.73;101346.31;5038110;28;20033;-58
2023/05/02 05:20:21;;;;;;;8.15;3.60;;;;;;;10.19;61.78;101346.31;5034878;28;20397;-58
2023/05/02 05:22:47;;;;;;;7.97;4.40;;;;;;;10.19;62.13;101359.53;5053849;28;20040;-57
2023/05/02 05:25:12;;;;;;;6.22;3.55;;;;;;;10.15;62.43;101358.78;5052228;28;20032;-58
2023/05/02 05:27:38;;;;;;;12.15;4.80;;;;;;;10.15;62.54;101363.16;5057002;28;20020;-57
2023/05/02 05:30:05;;;;;;;7.53;3.95;;;;;;;10.15;62.61;101368.44;5037835;28;20083;-57
2023/05/02 05:32:32;;;;;;;8.48;4.47;;;;;;;10.10;63.18;101371.25;5040750;28;20116;-57
2023/05/02 05:34:57;;;;;;;11.65;5.07;;;;;;;10.09;63.13;101370.41;5052526;28;20021;-57
2023/05/02 05:37:23;;;;;;;9.45;4.05;;;;;;;10.11;62.96;101372.97;5049138;28;20580;-57
2023/05/02 05:39:48;;;;;;;12.70;5.20;;;;;;;10.11;63.49;101384.41;5048467;28;20036;-57
2023/05/02 05:42:13;;;;;;;12.02;4.75;;;;;;;10.08;62.98;101379.22;5035822;28;20128;-57
2023/05/02 05:44:39;;;;;;;12.77;4.72;;;;;;;10.09;63.79;101386.25;5032112;28;20026;-57
2023/05/02 05:47:05;;;;;;;10.48;4.95;;;;;;;10.09;64.34;101380.97;5041024;28;20025;-57
2023/05/02 05:49:31;;;;;;;13.82;5.45;;;;;;;10.19;63.96;101396.50;5047586;28;20024;-57
2023/05/02 05:51:57;;;;;;;8.90;5.35;;;;;;;10.34;63.62;101390.72;5034957;28;20040;-57
2023/05/02 05:54:22;;;;;;;13.85;6.85;;;;;;;10.44;63.19;101392.13;5046300;28;20053;-57
2023/05/02 05:56:48;;;;;;;13.75;7.18;;;;;;;10.53;63.15;101396.25;5056705;28;20402;-57
2023/05/02 05:59:13;;;;;;;15.88;7.00;;;;;;;10.63;63.48;101405.56;5043585;28;20044;-57
2023/05/02 06:01:39;;;;;;;13.82;6.47;;;;;;;10.83;62.65;101410.13;5041694;28;20163;-57
2023/05/02 06:04:06;;;;;;;12.68;6.35;;;;;;;10.99;61.88;101406.94;5041624;28;20557;-57
2023/05/02 06:06:31;;;;;;;14.73;6.80;;;;;;;11.17;61.34;101414.19;5039235;28;20009;-57
2023/05/02 06:08:57;;;;;;;15.13;6.88;;;;;;;11.46;60.87;101408.69;5043291;28;20029;-57
2023/05/02 06:11:23;;;;;;;20.02;7.57;;;;;;;11.66;60.39;101429.13;5024748;28;20117;-57
2023/05/02 06:13:50;;;;;;;15.20;7.53;;;;;;;11.79;59.93;101426.84;5059563;28;20045;-57
2023/05/02 06:16:16;;;;;;;13.90;7.28;;;;;;;11.98;60.06;101432.28;5044301;28;20030;-57
2023/05/02 06:18:45;;;;;;;13.65;8.43;;;;;;;11.85;60.24;101439.81;5050458;28;20029;-57
2023/05/02 06:21:11;;;;;;;15.90;7.85;;;;;;;11.87;60.40;101449.44;5021206;28;20059;-57
2023/05/02 06:23:36;;;;;;;22.60;9.35;;;;;;;11.78;60.68;101447.16;5042167;28;20033;-57
2023/05/02 06:26:03;;;;;;;15.32;7.60;;;;;;;11.99;60.56;101464.00;5037524;28;20079;-58
2023/05/02 06:28:28;;;;;;;16.55;7.22;;;;;;;12.10;60.34;101460.94;5036396;28;20473;-60
2023/05/02 06:31:02;;;;;;;16.58;8.07;;;;;;;11.99;60.99;101465.81;5041396;28;20119;-59
2023/05/02 06:33:28;;;;;;;14.07;8.18;;;;;;;12.06;60.55;101468.16;5025176;28;20475;-58
2023/05/02 06:35:54;;;;;;;16.38;9.60;;;;;;;12.00;61.82;101484.28;5039938;28;20596;-59
2023/05/02 06:38:20;;;;;;;18.33;9.85;;;;;;;11.96;61.47;101487.13;5045160;28;20025;-58
2023/05/02 06:40:46;;;;;;;19.65;10.45;;;;;;;11.94;62.04;101495.97;5048137;28;20361;-59
2023/05/02 06:43:12;;;;;;;17.60;8.95;;;;;;;12.02;61.25;101502.78;5048285;28;20021;-63
2023/05/02 06:45:38;;;;;;;18.40;9.45;;;;;;;11.78;62.70;101505.41;5023435;28;20021;-58
2023/05/02 06:48:04;;;;;;;18.20;10.13;;;;;;;11.83;62.52;101507.91;5013947;28;20041;-58
2023/05/02 06:50:29;;;;;;;20.65;11.50;;;;;;;11.66;63.05;101514.72;5049576;28;20025;-58
2023/05/02 06:52:55;;;;;;;21.30;10.57;;;;;;;11.47;64.07;101511.03;5030305;28;20087;-59
2023/05/02 06:55:20;;;;;;;21.33;10.93;;;;;;;11.40;64.59;101520.97;5036298;28;20056;-58
2023/05/02 06:57:47;;;;;;;18.92;10.50;;;;;;;11.38;64.33;101534.28;5040154;28;20080;-58
2023/05/02 07:00:15;;;;;;;16.63;8.85;;;;;;;11.58;63.87;101530.03;5035403;28;20091;-57
2023/05/02 07:02:40;;;;;;;19.83;9.50;;;;;;;11.52;64.09;101531.13;5036366;28;20025;-57
2023/05/02 07:05:05;;;;;;;17.70;9.60;;;;;;;11.64;64.39;101539.50;5034298;28;20365;-60
2023/05/02 07:07:31;;;;;;;19.95;8.73;;;;;;;11.71;63.81;101541.03;5045451;28;20102;-60
2023/05/02 07:09:56;;;;;;;14.02;8.50;;;;;;;11.79;64.47;101544.25;5037618;28;20072;-58
2023/05/02 07:12:22;;;;;;;20.67;8.88;;;;;;;11.96;63.86;101550.72;5055355;28;20317;-58
2023/05/02 07:14:47;;;;;;;15.73;7.82;;;;;;;12.16;63.13;101548.13;5040345;28;20037;-54
2023/05/02 07:17:12;;;;;;;14.40;7.65;;;;;;;12.11;63.32;101558.94;5049067;28;20057;-55
2023/05/02 07:19:38;;;;;;;13.65;8.40;;;;;;;12.08;63.65;101551.09;5044180;28;20037;-53
2023/05/02 07:22:03;;;;;;;18.30;9.27;;;;;;;12.24;63.00;101556.66;5050727;28;20036;-55
2023/05/02 07:24:29;;;;;;;14.65;7.93;;;;;;;12.32;63.25;101552.84;5051503;28;20091;-55
2023/05/02 07:26:54;;;;;;;16.05;9.10;;;;;;;12.49;63.24;101561.81;5044036;28;20028;-56
2023/05/02 07:29:19;;;;;;;17.25;9.02;;;;;;;12.16;63.82;101558.72;5047882;28;20435;-55
2023/05/02 07:31:45;;;;;;;14.65;8.05;;;;;;;12.32;63.78;101574.03;5045099;28;20027;-55
2023/05/02 07:34:10;;;;;;;13.32;8.68;;;;;;;12.12;64.34;101565.09;5044027;28;20033;-54
2023/05/02 07:36:36;;;;;;;13.30;7.85;;;;;;;12.21;63.81;101571.81;5047382;28;20025;-55
2023/05/02 07:39:01;;;;;;;12.52;7.55;;;;;;;11.92;64.42;101577.31;5045683;28;20442;-55
2023/05/02 07:41:26;;;;;;;13.05;8.00;;;;;;;11.98;64.57;101581.50;5048828;28;20036;-55
2023/05/02 07:43:52;;;;;;;19.08;8.98;;;;;;;12.07;64.37;101581.16;5044261;28;20029;-54
2023/05/02 07:46:17;;;;;;;16.67;8.82;;;;;;;12.27;64.08;101580.38;5045010;28;20025;-54
2023/05/02 07:48:43;;;;;;;13.55;7.40;;;;;;;12.29;63.91;101591.81;5048261;28;20326;-55
2023/05/02 07:51:09;;;;;;;15.32;8.88;;;;;;;12.43;63.75;101587.72;5040244;28;20095;-55
2023/05/02 07:53:35;;;;;;;11.90;6.57;;;;;;;12.37;63.83;101587.97;5049601;28;20041;-56
2023/05/02 07:56:02;;;;;;;11.07;6.30;;;;;;;12.48;62.92;101593.72;5039185;28;20519;-54
2023/05/02 07:58:28;;;;;;;9.15;6.45;;;;;;;12.46;63.32;101587.59;5050733;28;20045;-55
2023/05/02 08:00:53;;;;;;;10.77;5.53;;;;;;;12.36;62.72;101594.19;5036390;28;20168;-52
2023/05/02 08:03:19;;;;;;;11.35;6.13;;;;;;;12.56;62.23;101594.25;5046753;28;20067;-54
2023/05/02 08:05:44;;;;;;;13.15;5.05;;;;;;;12.93;61.01;101595.41;5040271;28;20024;-54
2023/05/02 08:08:10;;;;;;;9.63;5.55;;;;;;;13.02;60.84;101597.66;5035440;28;20037;-52
2023/05/02 08:10:35;;;;;;;10.02;5.97;;;;;;;13.14;60.46;101616.63;5047196;28;20021;-53
2023/05/02 08:13:00;;;;;;;8.82;5.47;;;;;;;13.33;59.96;101612.28;5045623;28;20474;-52
2023/05/02 08:15:26;;;;;;;14.60;6.65;;;;;;;12.80;61.54;101612.72;5046447;28;20098;-52
2023/05/02 08:17:51;;;;;;;12.55;7.07;;;;;;;12.86;61.91;101617.78;5052970;28;20025;-54
2023/05/02 08:20:17;;;;;;;14.13;7.10;;;;;;;12.49;62.48;101616.66;5043498;28;20382;-54
2023/05/02 08:22:42;;;;;;;12.20;6.28;;;;;;;12.43;62.97;101620.41;5041921;28;20510;-54
2023/05/02 08:25:08;;;;;;;13.48;6.30;;;;;;;12.60;62.72;101611.78;5052623;28;20068;-52
2023/05/02 08:27:34;;;;;;;10.77;6.57;;;;;;;12.97;61.45;101620.88;5049610;28;20093;-54
2023/05/02 08:30:00;;;;;;;10.73;5.63;;;;;;;13.51;60.33;101620.38;5046918;28;20104;-52
2023/05/02 08:32:25;;;;;;;11.05;6.55;;;;;;;13.73;59.41;101621.16;5041649;28;20465;-51
2023/05/02 08:34:55;;;;;;;11.43;6.70;;;;;;;13.46;60.34;101622.38;5052363;28;20029;-54
2023/05/02 08:37:20;;;;;;;10.85;5.85;;;;;;;13.32;59.77;101617.63;5046056;28;20042;-53
2023/05/02 08:39:46;;;;;;;9.52;5.80;;;;;;;13.72;59.03;101624.75;5040988;28;20327;-54
2023/05/02 08:42:12;;;;;;;11.32;6.28;;;;;;;13.47;59.01;101630.28;5050942;28;20361;-54
2023/05/02 08:44:37;;;;;;;10.07;5.57;;;;;;;13.89;58.36;101621.31;5037829;28;20029;-55
2023/05/02 08:47:04;;;;;;;12.02;6.70;;;;;;;13.22;60.56;101631.31;5054099;28;20116;-55
2023/05/02 08:49:31;;;;;;;11.30;5.85;;;;;;;13.71;59.16;101638.09;5049537;28;20029;-57
2023/05/02 08:51:59;;;;;;;10.25;5.55;;;;;;;13.35;59.50;101636.97;5044834;28;20112;-55
2023/05/02 08:54:25;;;;;;;8.75;6.00;;;;;;;14.11;58.70;101642.47;5033102;28;20045;-60
2023/05/02 08:56:53;;;;;;;11.02;5.78;;;;;;;13.89;57.87;101652.34;5044581;28;20025;-57
2023/05/02 08:59:18;;;;;;;9.50;5.68;;;;;;;14.42;57.13;101651.66;5048245;28;20025;-56
2023/05/02 09:01:47;;;;;;;8.63;4.43;;;;;;;13.88;58.46;101663.94;5038165;28;20044;-57
2023/05/02 09:04:13;;;;;;;12.30;5.20;;;;;;;13.26;59.76;101661.25;5024848;28;20178;-57
2023/05/02 09:06:39;;;;;;;9.98;5.88;;;;;;;13.63;59.50;101662.34;5043423;28;20040;-57
2023/05/02 09:09:05;;;;;;;10.43;5.05;;;;;;;13.89;58.99;101678.91;5044352;28;20025;-57
2023/05/02 09:11:31;;;;;;;10.57;5.68;;;;;;;13.72;59.35;101682.34;5040742;28;20037;-54
2023/05/02 09:14:02;;;;;;;10.10;6.00;;;;;;;12.84;61.46;101678.03;5043326;28;20025;-57
2023/05/02 09:16:28;;;;;;;;;;;;;;;13.01;61.90;101690.59;5043346;28;20473;-54
2023/05/02 09:18:55;;;;;;;14.93;5.68;;;;;;;13.62;60.59;101692.50;5044232;28;20035;-56
2023/05/02 09:21:22;;;;;;;15.20;6.85;;;;;;;13.56;60.09;101692.75;5029034;28;20125;-54
2023/05/02 09:24:00;;;;;;;36.80;7.45;;;;;;;13.84;59.76;101691.56;5044997;28;20432;-56
2023/05/02 09:26:31;;;;;;;10.52;6.35;;;;;;;13.84;59.37;101704.84;5046893;28;20611;-57
2023/05/02 09:28:57;;;;;;;11.13;5.80;;;;;;;14.11;59.10;101703.59;5042613;28;20397;-57
2023/05/02 09:31:29;;;;;;;9.88;5.40;;;;;;;13.89;59.08;101703.69;5043357;28;20126;-56
2023/05/02 09:33:55;;;;;;;8.85;5.13;;;;;;;13.89;58.99;101705.50;5038712;28;20563;-56
2023/05/02 09:36:21;;;;;;;9.48;5.28;;;;;;;13.70;60.39;101708.97;5042059;28;20547;-55
2023/05/02 09:38:48;;;;;;;6.57;4.18;;;;;;;13.66;60.10;101707.38;5022637;28;20029;-55
2023/05/02 09:41:13;;;;;;;7.88;4.40;;;;;;;13.62;60.17;101707.56;5057950;28;20047;-55
2023/05/02 09:43:39;;;;;;;7.82;4.45;;;;;;;13.61;59.62;101712.00;5037783;28;20025;-55
2023/05/02 09:46:11;;;;;;;7.47;3.97;;;;;;;13.77;59.86;101718.38;5045646;28;20029;-53
2023/05/02 09:48:55;;;;;;;;;;;;;;;13.51;59.93;101716.84;5042425;28;20029;-52
2023/05/02 09:51:22;;;;;;;5.90;3.30;;;;;;;13.27;61.08;101726.69;5043387;28;19925;-55
2023/05/02 09:53:48;;;;;;;8.68;4.25;;;;;;;13.08;61.37;101728.34;5026376;28;20478;-56
2023/05/02 09:56:14;;;;;;;6.45;4.03;;;;;;;12.78;62.64;101734.88;5048706;28;20028;-57
2023/05/02 09:58:39;;;;;;;11.15;4.63;;;;;;;12.77;63.19;101735.78;5029902;28;20029;-56
2023/05/02 10:01:05;;;;;;;6.50;4.32;;;;;;;12.78;63.59;101741.94;5057619;28;20036;-57
2023/05/02 10:03:33;;;;;;;10.65;4.53;;;;;;;12.45;64.70;101739.66;5026425;28;20350;-56
2023/05/02 10:05:59;;;;;;;10.18;5.55;;;;;;;12.22;66.73;101749.31;5045965;28;20029;-56
2023/05/02 10:08:26;;;;;;;8.65;5.13;;;;;;;12.12;67.39;101758.53;5040431;28;20021;-55
2023/05/02 10:10:58;;;;;;;14.80;6.45;;;;;;;12.02;66.71;101751.84;5041219;28;20037;-57
2023/05/02 10:13:30;;;;;;;10.57;5.72;;;;;;;12.12;67.27;101770.00;5040052;28;20021;-55
2023/05/02 10:16:01;;;;;;;10.43;4.55;;;;;;;11.64;68.45;101789.31;5040286;28;20041;-54
2023/05/02 10:18:28;;;;;;;6.22;3.63;;;;;;;11.01;70.78;101793.97;5041192;28;20029;-59
2023/05/02 10:20:59;;;;;;;7.15;2.80;;;;;;;10.82;71.57;101793.66;5029322;28;20116;-59
2023/05/02 10:23:26;;;;;;;8.75;2.83;;;;;;;10.63;71.93;101809.22;5050170;28;20033;-59
2023/05/02 10:25:53;;;;;;;5.10;3.03;;;;;;;10.56;72.69;101807.66;5046792;28;20036;-59
2023/05/02 10:28:19;;;;;;;8.13;3.45;;;;;;;10.41;73.17;101814.25;5040095;28;20233;-59
2023/05/02 10:30:45;;;;;;;7.47;2.95;;;;;;;10.28;74.68;101814.56;5040998;28;20378;-58
2023/05/02 10:33:13;;;;;;;7.03;3.83;;;;;;;10.26;75.00;101820.78;5039682;28;20048;-60
2023/05/02 10:35:42;;;;;;;7.85;4.45;;;;;;;10.31;74.71;101832.09;5046199;28;20090;-59
2023/05/02 10:38:08;;;;;;;7.72;4.28;;;;;;;10.43;73.58;101839.72;5038139;28;20033;-54
2023/05/02 10:40:34;;;;;;;8.63;3.65;;;;;;;10.30;72.00;101838.31;5047441;28;20037;-56
2023/05/02 10:43:00;;;;;;;9.43;5.13;;;;;;;10.29;71.47;101840.06;5049278;28;20044;-56
2023/05/02 10:45:36;;;;;;;8.63;4.50;;;;;;;10.41;70.16;101841.56;5064789;28;20032;-57
2023/05/02 10:48:18;;;;;;;18.08;5.60;;;;;;;10.30;70.90;101843.59;5056213;28;20184;-56
2023/05/02 10:50:47;;;;;;;8.60;4.22;;;;;;;10.35;69.60;101847.00;5047355;28;20513;-58
2023/05/02 10:53:33;;;;;;;7.47;3.97;;;;;;;10.29;69.13;101860.34;5044121;28;20025;-55
2023/05/02 10:56:11;;;;;;;14.45;4.60;;;;;;;10.11;68.23;101849.34;5050031;28;20037;-58
2023/05/02 10:58:36;;;;;;;10.77;4.95;;;;;;;10.10;67.50;101858.19;5053899;28;20108;-56
2023/05/02 11:01:23;;;;;;;12.15;4.28;;;;;;;9.90;67.55;101871.03;5044734;28;20109;-56
2023/05/02 11:03:53;;;;;;;14.50;5.55;;;;;;;9.99;66.80;101875.22;5051427;28;20037;-59
2023/05/02 11:06:18;;;;;;;17.77;6.60;;;;;;;9.87;66.48;101872.00;5051470;28;20036;-59
2023/05/02 11:08:45;;;;;;;17.80;5.63;;;;;;;10.02;65.80;101870.75;5033409;28;20037;-59
2023/05/02 11:11:42;;;;;;;14.68;5.80;;;;;;;9.98;65.91;101879.63;5049544;28;20524;-59
2023/05/02 11:14:09;;;;;;;16.10;4.95;;;;;;;10.14;64.30;101873.97;5041047;28;20103;-58
2023/05/02 11:17:05;;;;;;;17.67;6.28;;;;;;;10.20;63.73;101887.00;5046079;28;20033;-59
2023/05/02 11:19:36;;;;;;;20.48;5.90;;;;;;;10.39;63.18;101875.06;5048131;28;20037;-60
2023/05/02 11:22:25;;;;;;;;;;;;;;;10.16;63.55;101872.16;5046976;28;20037;-56
2023/05/02 11:24:51;;;;;;;14.95;5.93;;;;;;;10.12;63.50;101884.56;5040421;28;19921;-57